createdAt,value
2023-03-03T00:00:49.296Z,9.90
2023-03-03T00:03:21.631Z,9.90
2023-03-03T00:05:49.596Z,9.90
2023-03-03T00:08:18.385Z,9.90
2023-03-03T00:10:45.563Z,9.90
2023-03-03T00:13:32.162Z,9.80
2023-03-03T00:16:27.810Z,9.80
2023-03-03T00:18:56.504Z,9.80
2023-03-03T00:21:42.832Z,9.80
2023-03-03T00:24:22.460Z,9.80
2023-03-03T00:26:57.222Z,9.80
2023-03-03T00:29:30.902Z,9.70
2023-03-03T00:32:22.428Z,9.70
2023-03-03T00:34:50.146Z,9.70
2023-03-03T00:37:35.367Z,9.70
2023-03-03T00:40:13.112Z,9.70
2023-03-03T00:42:39.927Z,9.70
2023-03-03T00:45:24.580Z,9.60
2023-03-03T00:47:51.400Z,9.60
2023-03-03T00:50:31.148Z,9.60
2023-03-03T00:53:13.782Z,9.50
2023-03-03T00:55:40.916Z,9.50
2023-03-03T00:58:08.115Z,9.50
2023-03-03T01:00:41.262Z,9.40
2023-03-03T01:03:15.179Z,9.40
2023-03-03T01:05:42.695Z,9.40
2023-03-03T01:08:09.698Z,9.30
2023-03-03T01:10:41.842Z,9.30
2023-03-03T01:13:09.980Z,9.30
2023-03-03T01:15:38.221Z,9.20
2023-03-03T01:18:05.138Z,9.20
2023-03-03T01:20:32.096Z,9.10
2023-03-03T01:22:58.889Z,9.10
2023-03-03T01:25:25.730Z,9.00
2023-03-03T01:27:52.640Z,9.00
2023-03-03T01:30:19.688Z,8.90
2023-03-03T01:32:46.636Z,8.90
2023-03-03T01:35:13.515Z,8.80
2023-03-03T01:37:40.611Z,8.80
2023-03-03T01:40:15.213Z,8.80
2023-03-03T01:42:42.080Z,8.70
2023-03-03T01:45:21.758Z,8.70
2023-03-03T01:48:20.559Z,8.60
2023-03-03T01:50:50.385Z,8.50
2023-03-03T01:53:23.883Z,8.40
2023-03-03T01:55:52.986Z,8.30
2023-03-03T01:58:37.388Z,8.30
2023-03-03T02:01:05.635Z,8.20
2023-03-03T02:03:33.864Z,8.20
2023-03-03T02:06:14.437Z,8.10
2023-03-03T02:08:53.789Z,8.10
2023-03-03T02:11:22.619Z,8.00
2023-03-03T02:13:50.206Z,7.90
2023-03-03T02:16:17.388Z,7.90
2023-03-03T02:18:44.634Z,7.90
2023-03-03T02:21:28.729Z,7.80
2023-03-03T02:24:03.627Z,7.80
2023-03-03T02:26:34.251Z,7.80
2023-03-03T02:29:05.494Z,7.80
2023-03-03T02:31:33.378Z,7.80
2023-03-03T02:34:01.027Z,7.80
2023-03-03T02:36:37.472Z,7.80
2023-03-03T02:39:21.357Z,7.80
2023-03-03T02:42:15.155Z,7.80
2023-03-03T02:44:47.935Z,7.80
2023-03-03T02:47:14.807Z,7.80
2023-03-03T02:49:43.008Z,7.80
2023-03-03T02:52:11.709Z,7.80
2023-03-03T02:54:41.255Z,7.80
2023-03-03T02:57:09.226Z,7.80
2023-03-03T02:59:36.385Z,7.80
2023-03-03T03:02:10.003Z,7.80
2023-03-03T03:04:36.830Z,7.80
2023-03-03T03:07:04.785Z,7.80
2023-03-03T03:09:33.771Z,7.80
2023-03-03T03:12:02.490Z,7.80
2023-03-03T03:14:31.703Z,7.80
2023-03-03T03:16:59.169Z,7.80
2023-03-03T03:19:28.416Z,7.80
2023-03-03T03:21:56.166Z,7.70
2023-03-03T03:24:23.295Z,7.70
2023-03-03T03:26:55.787Z,7.80
2023-03-03T03:29:24.160Z,7.70
2023-03-03T03:31:51.159Z,7.70
2023-03-03T03:34:18.346Z,7.70
2023-03-03T03:36:46.874Z,7.70
2023-03-03T03:39:15.179Z,7.70
2023-03-03T03:41:45.762Z,7.70
2023-03-03T03:44:12.552Z,7.70
2023-03-03T03:46:39.642Z,7.70
2023-03-03T03:49:06.902Z,7.70
2023-03-03T03:51:35.602Z,7.70
2023-03-03T03:54:02.742Z,7.70
2023-03-03T03:56:30.755Z,7.70
2023-03-03T03:59:00.717Z,7.70
2023-03-03T04:01:28.303Z,7.70
2023-03-03T04:03:56.185Z,7.70
2023-03-03T04:06:25.135Z,7.70
2023-03-03T04:08:52.786Z,7.60
2023-03-03T04:11:22.068Z,7.60
2023-03-03T04:13:49.020Z,7.60
2023-03-03T04:16:16.132Z,7.60
2023-03-03T04:18:46.387Z,7.60
2023-03-03T04:21:15.952Z,7.60
2023-03-03T04:23:43.998Z,7.60
2023-03-03T04:26:11.388Z,7.60
2023-03-03T04:28:39.022Z,7.60
2023-03-03T04:31:06.759Z,7.60
2023-03-03T04:33:33.842Z,7.60
2023-03-03T04:36:02.661Z,7.60
2023-03-03T04:38:29.592Z,7.50
2023-03-03T04:40:57.447Z,7.50
2023-03-03T04:43:26.205Z,7.50
2023-03-03T04:45:54.154Z,7.50
2023-03-03T04:48:21.908Z,7.50
2023-03-03T04:50:49.239Z,7.50
2023-03-03T04:53:16.214Z,7.50
2023-03-03T04:55:43.803Z,7.50
2023-03-03T04:58:10.775Z,7.40
2023-03-03T05:00:39.754Z,7.40
2023-03-03T05:03:10.462Z,7.40
2023-03-03T05:05:40.186Z,7.40
2023-03-03T05:08:06.994Z,7.40
2023-03-03T05:10:35.110Z,7.40
2023-03-03T05:13:02.001Z,7.30
2023-03-03T05:15:28.856Z,7.30
2023-03-03T05:17:56.414Z,7.30
2023-03-03T05:20:24.584Z,7.30
2023-03-03T05:22:51.757Z,7.30
2023-03-03T05:25:18.752Z,7.30
2023-03-03T05:27:45.582Z,7.30
2023-03-03T05:30:12.879Z,7.30
2023-03-03T05:32:39.663Z,7.30
2023-03-03T05:35:07.085Z,7.30
2023-03-03T05:37:33.916Z,7.20
2023-03-03T05:40:00.782Z,7.20
2023-03-03T05:42:27.741Z,7.20
2023-03-03T05:44:54.614Z,7.20
2023-03-03T05:47:21.443Z,7.20
2023-03-03T05:49:48.983Z,7.20
2023-03-03T05:52:15.819Z,7.20
2023-03-03T05:54:42.701Z,7.20
2023-03-03T05:57:09.453Z,7.20
2023-03-03T05:59:36.305Z,7.20
2023-03-03T06:02:03.411Z,7.20
2023-03-03T06:04:30.244Z,7.20
2023-03-03T06:06:57.039Z,7.10
2023-03-03T06:09:23.901Z,7.10
2023-03-03T06:11:52.870Z,7.10
2023-03-03T06:14:24.809Z,7.10
2023-03-03T06:16:53.471Z,7.10
2023-03-03T06:19:20.318Z,7.10
2023-03-03T06:21:47.084Z,7.10
2023-03-03T06:24:13.827Z,7.10
2023-03-03T06:26:40.710Z,7.10
2023-03-03T06:29:07.705Z,7.00
2023-03-03T06:31:34.820Z,7.00
2023-03-03T06:34:01.717Z,7.00
2023-03-03T06:36:28.629Z,7.00
2023-03-03T06:38:55.643Z,7.00
2023-03-03T06:41:22.453Z,7.00
2023-03-03T06:43:49.266Z,6.90
2023-03-03T06:46:17.319Z,6.90
2023-03-03T06:48:44.301Z,6.90
2023-03-03T06:51:33.606Z,6.90
2023-03-03T06:54:06.518Z,6.80
2023-03-03T06:56:36.992Z,6.80
2023-03-03T06:59:11.589Z,6.80
2023-03-03T07:01:39.002Z,6.80
2023-03-03T07:04:21.065Z,6.80
2023-03-03T07:06:48.055Z,6.80
2023-03-03T07:09:24.763Z,6.80
2023-03-03T07:11:53.795Z,6.80
2023-03-03T07:14:21.218Z,6.80
2023-03-03T07:16:56.597Z,6.80
2023-03-03T07:19:43.083Z,6.80
2023-03-03T07:22:17.081Z,6.80
2023-03-03T07:24:46.140Z,6.80
2023-03-03T07:27:19.833Z,6.80
2023-03-03T07:29:52.026Z,6.80
2023-03-03T07:32:27.517Z,6.80
2023-03-03T07:34:56.663Z,6.80
2023-03-03T07:37:35.804Z,6.90
2023-03-03T07:40:27.035Z,6.90
2023-03-03T07:42:53.875Z,6.90
2023-03-03T07:45:30.092Z,6.90
2023-03-03T07:48:25.065Z,6.90
2023-03-03T07:50:52.202Z,6.90
2023-03-03T07:53:29.693Z,6.90
2023-03-03T07:55:56.544Z,6.90
2023-03-03T07:58:37.319Z,6.90
2023-03-03T08:01:35.339Z,7.00
2023-03-03T08:04:02.265Z,7.00
2023-03-03T08:06:35.343Z,7.00
2023-03-03T08:09:29.713Z,7.00
2023-03-03T08:12:34.313Z,7.00
2023-03-03T08:15:18.600Z,7.10
2023-03-03T08:17:46.599Z,7.10
2023-03-03T08:20:34.563Z,7.10
2023-03-03T08:23:01.495Z,7.10
2023-03-03T08:25:28.495Z,7.10
2023-03-03T08:27:55.291Z,7.10
2023-03-03T08:30:22.575Z,7.20
2023-03-03T08:32:49.475Z,7.20
2023-03-03T08:35:16.355Z,7.20
2023-03-03T08:37:43.264Z,7.20
2023-03-03T08:40:10.710Z,7.20
2023-03-03T08:42:37.519Z,7.20
2023-03-03T08:45:04.790Z,7.20
2023-03-03T08:47:31.889Z,7.20
2023-03-03T08:49:59.018Z,7.20
2023-03-03T08:52:26.829Z,7.20
2023-03-03T08:54:54.261Z,7.20
2023-03-03T08:57:21.260Z,7.10
2023-03-03T08:59:48.101Z,7.20
2023-03-03T09:02:15.403Z,7.20
2023-03-03T09:04:42.207Z,7.20
2023-03-03T09:07:09.175Z,7.20
2023-03-03T09:09:37.430Z,7.20
2023-03-03T09:12:16.714Z,7.20
2023-03-03T09:14:43.712Z,7.30
2023-03-03T09:17:26.094Z,7.30
2023-03-03T09:19:59.745Z,7.30
2023-03-03T09:22:28.030Z,7.40
2023-03-03T09:24:58.623Z,7.50
2023-03-03T09:27:31.211Z,7.50
2023-03-03T09:30:03.024Z,7.60
2023-03-03T09:32:43.132Z,7.70
2023-03-03T09:35:28.922Z,7.80
2023-03-03T09:37:55.735Z,7.90
2023-03-03T09:40:47.404Z,8.00
2023-03-03T09:43:50.855Z,8.10
2023-03-03T09:46:44.922Z,8.30
2023-03-03T09:49:29.676Z,8.40
2023-03-03T09:52:21.165Z,8.60
2023-03-03T09:55:26.603Z,8.80
2023-03-03T09:58:12.174Z,9.00
2023-03-03T10:00:57.136Z,9.20
2023-03-03T10:03:30.150Z,9.40
2023-03-03T10:06:01.662Z,9.50
2023-03-03T10:09:08.357Z,9.70
2023-03-03T10:11:39.979Z,9.80
2023-03-03T10:14:19.150Z,10.10
2023-03-03T10:17:08.539Z,10.20
2023-03-03T10:20:17.908Z,10.40
2023-03-03T10:22:44.658Z,10.50
2023-03-03T10:25:29.350Z,10.70
2023-03-03T10:28:06.912Z,10.90
2023-03-03T10:31:05.608Z,11.00
2023-03-03T10:33:54.356Z,11.10
2023-03-03T10:36:41.828Z,11.30
2023-03-03T10:39:44.003Z,11.40
2023-03-03T10:42:35.292Z,11.60
2023-03-03T10:45:05.091Z,11.70
2023-03-03T10:47:40.804Z,11.90
2023-03-03T10:50:15.764Z,12.00
2023-03-03T10:53:14.771Z,12.20
2023-03-03T10:56:22.563Z,12.40
2023-03-03T10:59:17.469Z,12.50
2023-03-03T11:02:02.128Z,12.70
2023-03-03T11:04:45.404Z,12.80
2023-03-03T11:07:37.231Z,12.90
2023-03-03T11:10:05.951Z,13.10
2023-03-03T11:13:03.917Z,13.20
2023-03-03T11:15:58.518Z,13.30
2023-03-03T11:18:39.308Z,13.30
2023-03-03T11:21:32.279Z,13.30
2023-03-03T11:24:05.309Z,13.30
2023-03-03T11:27:06.864Z,13.20
2023-03-03T11:29:58.163Z,13.10
2023-03-03T11:32:32.654Z,12.90
2023-03-03T11:35:05.243Z,12.80
2023-03-03T11:37:39.958Z,12.60
2023-03-03T11:40:21.891Z,12.50
2023-03-03T11:43:10.806Z,12.40
2023-03-03T11:45:57.669Z,12.30
2023-03-03T11:48:45.533Z,12.10
2023-03-03T11:51:53.986Z,12.10
2023-03-03T11:54:23.564Z,12.00
2023-03-03T11:56:52.182Z,12.00
2023-03-03T11:59:44.831Z,11.90
2023-03-03T12:02:14.484Z,11.80
2023-03-03T12:04:53.648Z,11.80
2023-03-03T12:07:26.742Z,11.80
2023-03-03T12:10:07.221Z,11.80
2023-03-03T12:12:40.997Z,11.70
2023-03-03T12:15:29.019Z,11.70
2023-03-03T12:18:06.383Z,11.70
2023-03-03T12:20:51.800Z,11.70
2023-03-03T12:23:42.967Z,11.70
2023-03-03T12:26:37.290Z,11.70
2023-03-03T12:29:44.813Z,11.60
2023-03-03T12:32:23.185Z,11.60
2023-03-03T12:35:19.387Z,11.60
2023-03-03T12:38:25.520Z,11.60
2023-03-03T12:41:21.926Z,11.60
2023-03-03T12:43:55.065Z,11.60
2023-03-03T12:46:35.899Z,11.70
2023-03-03T12:49:02.776Z,11.70
2023-03-03T12:51:50.843Z,11.70
2023-03-03T12:54:41.982Z,11.70
2023-03-03T12:57:51.837Z,11.70
2023-03-03T13:00:39.139Z,11.70
2023-03-03T13:03:31.937Z,11.70
2023-03-03T13:06:10.173Z,11.70
2023-03-03T13:08:42.888Z,11.80
2023-03-03T13:11:53.939Z,11.80
2023-03-03T13:14:51.142Z,11.80
2023-03-03T13:17:18.377Z,11.80
2023-03-03T13:20:01.572Z,11.80
2023-03-03T13:22:48.750Z,11.80
2023-03-03T13:25:35.755Z,11.80
2023-03-03T13:28:21.254Z,11.80
2023-03-03T13:30:51.160Z,11.80
2023-03-03T13:33:30.042Z,11.80
2023-03-03T13:36:08.441Z,11.80
2023-03-03T13:38:46.883Z,11.90
2023-03-03T13:41:59.979Z,11.90
2023-03-03T13:44:42.837Z,11.90
2023-03-03T13:47:27.149Z,12.00
2023-03-03T13:50:14.539Z,12.00
2023-03-03T13:53:10.063Z,12.00
2023-03-03T13:55:41.475Z,12.00
2023-03-03T13:59:06.552Z,12.10
2023-03-03T14:01:58.020Z,12.00
2023-03-03T14:04:43.549Z,12.10
2023-03-03T14:07:36.612Z,12.10
2023-03-03T14:10:25.625Z,12.10
2023-03-03T14:13:13.465Z,12.20
2023-03-03T14:16:19.324Z,12.10
2023-03-03T14:18:58.144Z,12.10
2023-03-03T14:22:04.315Z,12.20
2023-03-03T14:24:31.398Z,12.20
2023-03-03T14:27:01.512Z,12.20
2023-03-03T14:29:28.315Z,12.30
2023-03-03T14:31:56.747Z,12.20
2023-03-03T14:34:23.583Z,12.30
2023-03-03T14:36:55.178Z,12.30
2023-03-03T14:39:35.197Z,12.30
2023-03-03T14:42:12.467Z,12.30
2023-03-03T14:44:54.965Z,12.30
2023-03-03T14:47:27.605Z,12.30
2023-03-03T14:49:59.980Z,12.30
2023-03-03T14:52:29.475Z,12.30
2023-03-03T14:55:00.438Z,12.30
2023-03-03T14:57:48.667Z,12.40
2023-03-03T15:00:16.718Z,12.30
2023-03-03T15:02:59.989Z,12.30
2023-03-03T15:05:31.615Z,12.30
2023-03-03T15:08:09.614Z,12.30
2023-03-03T15:10:41.028Z,12.30
2023-03-03T15:13:19.870Z,12.40
2023-03-03T15:15:59.536Z,12.30
2023-03-03T15:18:28.514Z,12.30
2023-03-03T15:21:13.308Z,12.30
2023-03-03T15:24:07.677Z,12.30
2023-03-03T15:26:55.267Z,12.30
2023-03-03T15:29:49.256Z,12.30
2023-03-03T15:32:16.122Z,12.30
2023-03-03T15:35:00.092Z,12.30
2023-03-03T15:37:39.484Z,12.30
2023-03-03T15:40:29.880Z,12.30
2023-03-03T15:43:22.984Z,12.30
2023-03-03T15:45:58.491Z,12.30
2023-03-03T15:48:44.718Z,12.30
2023-03-03T15:51:28.797Z,12.20
2023-03-03T15:54:22.768Z,12.20
2023-03-03T15:56:58.530Z,12.20
2023-03-03T15:59:42.252Z,12.20
2023-03-03T16:02:33.372Z,12.20
2023-03-03T16:05:15.332Z,12.20
2023-03-03T16:08:17.120Z,12.20
2023-03-03T16:11:09.978Z,12.10
2023-03-03T16:13:59.368Z,12.10
2023-03-03T16:16:32.229Z,12.10
2023-03-03T16:19:28.173Z,12.10
2023-03-03T16:22:16.293Z,12.10
2023-03-03T16:25:10.862Z,12.10
2023-03-03T16:27:52.351Z,12.10
2023-03-03T16:30:32.977Z,12.10
2023-03-03T16:33:05.034Z,12.10
2023-03-03T16:35:38.680Z,12.10
2023-03-03T16:38:26.708Z,12.00
2023-03-03T16:40:57.241Z,12.00
2023-03-03T16:43:59.910Z,12.00
2023-03-03T16:46:41.264Z,12.00
2023-03-03T16:49:14.317Z,11.90
2023-03-03T16:52:04.201Z,11.90
2023-03-03T16:54:54.488Z,11.90
2023-03-03T16:57:37.988Z,11.90
2023-03-03T17:00:13.909Z,11.80
2023-03-03T17:02:43.519Z,11.80
2023-03-03T17:05:44.432Z,11.80
2023-03-03T17:08:41.349Z,11.80
2023-03-03T17:11:12.800Z,11.70
2023-03-03T17:14:07.529Z,11.70
2023-03-03T17:16:58.555Z,11.70
2023-03-03T17:19:57.433Z,11.70
2023-03-03T17:22:59.274Z,11.70
2023-03-03T17:25:38.298Z,11.60
2023-03-03T17:28:34.439Z,11.60
2023-03-03T17:31:16.840Z,11.60
2023-03-03T17:33:51.900Z,11.60
2023-03-03T17:36:42.300Z,11.50
2023-03-03T17:39:44.302Z,11.50
2023-03-03T17:42:32.324Z,11.50
2023-03-03T17:45:16.150Z,11.50
2023-03-03T17:48:04.266Z,11.50
2023-03-03T17:50:37.409Z,11.50
2023-03-03T17:53:26.729Z,11.40
2023-03-03T17:56:12.022Z,11.40
2023-03-03T17:58:56.259Z,11.40
2023-03-03T18:01:34.162Z,11.30
2023-03-03T18:04:09.852Z,11.30
2023-03-03T18:06:47.460Z,11.30
2023-03-03T18:09:15.075Z,11.20
2023-03-03T18:12:09.674Z,11.20
2023-03-03T18:14:45.562Z,11.10
2023-03-03T18:17:15.545Z,11.10
2023-03-03T18:20:20.990Z,11.00
2023-03-03T18:22:51.086Z,11.00
2023-03-03T18:25:58.682Z,10.90
2023-03-03T18:28:50.001Z,10.80
2023-03-03T18:31:23.492Z,10.80
2023-03-03T18:34:24.321Z,10.70
2023-03-03T18:37:00.246Z,10.70
2023-03-03T18:39:46.667Z,10.60
2023-03-03T18:42:16.529Z,10.50
2023-03-03T18:44:44.738Z,10.40
2023-03-03T18:47:11.873Z,10.40
2023-03-03T18:49:49.097Z,10.30
2023-03-03T18:52:29.676Z,10.20
2023-03-03T18:55:09.382Z,10.20
2023-03-03T18:57:39.407Z,10.10
2023-03-03T19:00:15.585Z,10.10
2023-03-03T19:02:52.619Z,10.00
2023-03-03T19:05:37.099Z,10.00
2023-03-03T19:08:25.972Z,10.00
2023-03-03T19:10:55.709Z,9.90
2023-03-03T19:13:34.645Z,9.90
2023-03-03T19:16:28.982Z,9.80
2023-03-03T19:18:55.759Z,9.80
2023-03-03T19:21:27.994Z,9.80
2023-03-03T19:24:00.428Z,9.70
2023-03-03T19:26:30.417Z,9.70
2023-03-03T19:29:21.569Z,9.70
2023-03-03T19:32:06.999Z,9.60
2023-03-03T19:35:04.443Z,9.60
2023-03-03T19:37:37.121Z,9.60
2023-03-03T19:40:24.182Z,9.50
2023-03-03T19:43:02.953Z,9.50
2023-03-03T19:45:54.149Z,9.50
2023-03-03T19:48:55.443Z,9.50
2023-03-03T19:51:49.644Z,9.50
2023-03-03T19:54:34.798Z,9.50
2023-03-03T19:57:05.795Z,9.50
2023-03-03T19:59:58.869Z,9.40
2023-03-03T20:02:39.484Z,9.40
2023-03-03T20:05:33.013Z,9.40
2023-03-03T20:08:11.203Z,9.30
2023-03-03T20:10:40.807Z,9.30
2023-03-03T20:13:14.029Z,9.30
2023-03-03T20:15:45.551Z,9.30
2023-03-03T20:18:36.383Z,9.30
2023-03-03T20:21:16.378Z,9.30
2023-03-03T20:24:22.525Z,9.20
2023-03-03T20:26:57.882Z,9.20
2023-03-03T20:29:31.024Z,9.20
2023-03-03T20:32:16.100Z,9.20
2023-03-03T20:35:06.321Z,9.20
2023-03-03T20:38:10.133Z,9.20
2023-03-03T20:41:07.753Z,9.20
2023-03-03T20:43:54.714Z,9.20
2023-03-03T20:46:43.585Z,9.10
2023-03-03T20:49:35.186Z,9.10
2023-03-03T20:52:30.332Z,9.10
2023-03-03T20:55:06.336Z,9.10
2023-03-03T20:57:59.701Z,9.10
2023-03-03T21:01:00.225Z,9.10
2023-03-03T21:03:39.757Z,9.00
2023-03-03T21:06:19.110Z,9.00
2023-03-03T21:08:53.824Z,8.90
2023-03-03T21:11:32.685Z,8.90
2023-03-03T21:14:11.576Z,8.90
2023-03-03T21:16:40.513Z,8.90
2023-03-03T21:19:13.376Z,8.90
2023-03-03T21:21:47.459Z,8.80
2023-03-03T21:24:19.595Z,8.80
2023-03-03T21:27:02.054Z,8.80
2023-03-03T21:29:31.374Z,8.70
2023-03-03T21:32:03.583Z,8.70
2023-03-03T21:34:31.723Z,8.60
2023-03-03T21:37:00.508Z,8.60
2023-03-03T21:39:31.649Z,8.60
2023-03-03T21:42:02.883Z,8.50
2023-03-03T21:44:40.771Z,8.50
2023-03-03T21:47:27.535Z,8.50
2023-03-03T21:49:54.371Z,8.40
2023-03-03T21:52:22.907Z,8.40
2023-03-03T21:54:51.170Z,8.40
2023-03-03T21:57:18.627Z,8.30
2023-03-03T21:59:45.553Z,8.30
2023-03-03T22:02:12.366Z,8.30
2023-03-03T22:04:39.362Z,8.20
2023-03-03T22:07:06.641Z,8.20
2023-03-03T22:09:34.602Z,8.20
2023-03-03T22:12:01.398Z,8.20
2023-03-03T22:14:28.294Z,8.10
2023-03-03T22:16:55.103Z,8.10
2023-03-03T22:19:23.462Z,8.10
2023-03-03T22:21:50.383Z,8.10
2023-03-03T22:24:18.138Z,8.10
2023-03-03T22:26:45.010Z,8.10
2023-03-03T22:29:11.911Z,8.10
2023-03-03T22:31:38.896Z,8.10
2023-03-03T22:34:05.864Z,8.10
2023-03-03T22:36:32.919Z,8.10
2023-03-03T22:39:00.939Z,8.10
2023-03-03T22:41:27.873Z,8.10
2023-03-03T22:43:54.663Z,8.00
2023-03-03T22:46:21.512Z,8.00
2023-03-03T22:48:48.402Z,8.00
2023-03-03T22:51:15.312Z,8.00
2023-03-03T22:53:42.127Z,8.00
2023-03-03T22:56:08.932Z,7.90
2023-03-03T22:58:35.915Z,7.90
2023-03-03T23:01:03.430Z,7.90
2023-03-03T23:03:32.297Z,7.90
2023-03-03T23:05:59.570Z,7.90
2023-03-03T23:08:27.547Z,7.90
2023-03-03T23:11:08.594Z,7.80
2023-03-03T23:13:35.461Z,7.80
2023-03-03T23:16:03.036Z,7.80
2023-03-03T23:18:29.964Z,7.80
2023-03-03T23:20:56.971Z,7.70
2023-03-03T23:23:23.895Z,7.70
2023-03-03T23:25:50.680Z,7.70
2023-03-03T23:28:19.228Z,7.70
2023-03-03T23:30:46.127Z,7.70
2023-03-03T23:33:13.063Z,7.60
2023-03-03T23:35:40.055Z,7.60
2023-03-03T23:38:07.218Z,7.60
2023-03-03T23:40:34.024Z,7.50
2023-03-03T23:43:00.821Z,7.50
2023-03-03T23:45:27.658Z,7.40
2023-03-03T23:47:54.517Z,7.40
2023-03-03T23:50:21.301Z,7.40
2023-03-03T23:52:48.193Z,7.30
2023-03-03T23:55:15.033Z,7.30
2023-03-03T23:57:41.823Z,7.30
